Time;durP1;ratioP1;P1;durP2;ratioP2;P2;SDS_P1;SDS_P2;PMS_P1;PMS_P2;Temp;Humidity;BMP_temperature;BMP_pressure;BME280_temperature;BME280_humidity;BME280_pressure;Samples;Min_cycle;Max_cycle;Signal;HPM_P1;HPM_P2
2023/12/11 00:01:48;;;;;;;;;;;9.40;99.90;;;;;;5044308;28;20529;-76
2023/12/11 00:04:13;;;;;;;;;;;9.40;99.90;;;;;;5046927;28;19925;-75
2023/12/11 00:06:39;;;;;;;;;;;9.30;99.90;;;;;;5048295;28;20384;-76
2023/12/11 00:09:05;;;;;;;;;;;9.30;99.90;;;;;;5048632;28;19935;-75
2023/12/11 00:11:30;;;;;;;;;;;9.20;99.90;;;;;;5044678;28;20024;-75
2023/12/11 00:13:56;;;;;;;;;;;9.20;99.90;;;;;;5049738;28;19978;-76
2023/12/11 00:16:22;;;;;;;;;;;9.20;99.90;;;;;;5050062;28;19932;-75
2023/12/11 00:18:48;;;;;;;;;;;9.10;99.90;;;;;;5048936;28;20638;-76
2023/12/11 00:21:14;;;;;;;;;;;9.10;99.90;;;;;;5040824;28;20007;-75
2023/12/11 00:23:40;;;;;;;;;;;9.10;99.90;;;;;;5048986;28;20578;-76
2023/12/11 00:26:05;;;;;;;;;;;9.00;99.90;;;;;;5046592;28;19925;-76
2023/12/11 00:28:31;;;;;;;;;;;9.00;99.90;;;;;;5050380;28;19978;-77
2023/12/11 00:30:56;;;;;;;;;;;9.00;99.90;;;;;;5038243;28;20384;-76
2023/12/11 00:33:22;;;;;;;;;;;8.90;99.90;;;;;;5046572;28;19971;-76
2023/12/11 00:35:48;;;;;;;;;;;8.90;99.90;;;;;;5049627;28;19929;-75
2023/12/11 00:38:13;;;;;;;;;;;8.90;99.90;;;;;;5048347;28;19932;-76
2023/12/11 00:40:39;;;;;;;;;;;8.90;99.90;;;;;;5047482;28;20376;-76
2023/12/11 00:43:04;;;;;;;;;;;8.90;99.90;;;;;;5048754;28;19970;-76
2023/12/11 00:45:30;;;;;;;;;;;8.90;99.90;;;;;;5049038;28;19932;-75
2023/12/11 00:47:56;;;;;;;;;;;8.90;99.90;;;;;;5050899;28;19935;-76
2023/12/11 00:50:21;;;;;;;;;;;8.90;99.90;;;;;;5046939;28;19928;-77
2023/12/11 00:52:47;;;;;;;;;;;8.90;99.90;;;;;;5047360;28;19968;-77
2023/12/11 00:55:13;;;;;;;;;;;8.90;99.90;;;;;;5046149;28;20373;-77
2023/12/11 00:57:38;;;;;;;;;;;8.80;99.90;;;;;;5030193;28;19932;-77
2023/12/11 01:00:05;;;;;;;;;;;8.90;99.90;;;;;;5045712;28;20022;-77
2023/12/11 01:02:30;;;;;;;;;;;8.90;99.90;;;;;;5047271;28;20063;-76
2023/12/11 01:04:57;;;;;;;;;;;8.90;99.90;;;;;;5047821;28;20023;-77
2023/12/11 01:07:23;;;;;;;;;;;9.00;99.90;;;;;;5047765;28;20050;-77
2023/12/11 01:09:48;;;;;;;;;;;8.90;99.90;;;;;;5045205;28;20398;-75
2023/12/11 01:12:14;;;;;;;;;;;8.90;99.90;;;;;;5046079;28;19948;-77
2023/12/11 01:14:39;;;;;;;;;;;9.00;99.90;;;;;;5047822;28;19924;-76
2023/12/11 01:17:05;;;;;;;;;;;9.00;99.90;;;;;;5048025;28;19944;-77
2023/12/11 01:19:31;;;;;;;;;;;9.00;99.90;;;;;;5051018;28;19968;-76
2023/12/11 01:21:56;;;;;;;;;;;9.00;99.90;;;;;;5046577;28;19937;-76
2023/12/11 01:24:22;;;;;;;;;;;9.00;99.90;;;;;;5048471;28;20335;-76
2023/12/11 01:26:47;;;;;;;;;;;9.00;99.90;;;;;;5047411;28;20411;-76
2023/12/11 01:29:13;;;;;;;;;;;9.00;99.90;;;;;;5048435;28;19925;-76
2023/12/11 01:31:38;;;;;;;;;;;9.00;99.90;;;;;;5047597;28;19974;-77
2023/12/11 01:34:05;;;;;;;;;;;9.10;99.90;;;;;;5049950;28;20399;-76
2023/12/11 01:36:30;;;;;;;;;;;9.10;99.90;;;;;;5047442;28;19932;-77
2023/12/11 01:38:56;;;;;;;;;;;9.10;99.90;;;;;;5046191;28;19929;-76
2023/12/11 01:41:21;;;;;;;;;;;9.10;99.90;;;;;;5045896;28;19924;-76
2023/12/11 01:43:54;;;;;;;;;;;9.10;99.90;;;;;;5047586;28;20264;-78
2023/12/11 01:46:20;;;;;;;;;;;9.10;99.90;;;;;;5047360;28;20020;-75
2023/12/11 01:48:47;;;;;;;;;;;9.20;99.90;;;;;;5046885;28;20343;-74
2023/12/11 01:51:13;;;;;;;;;;;9.10;99.90;;;;;;5046151;28;19924;-76
2023/12/11 01:53:39;;;;;;;;;;;9.10;99.90;;;;;;5049889;28;20028;-75
2023/12/11 01:56:05;;;;;;;;;;;9.10;99.90;;;;;;5044178;28;19936;-75
2023/12/11 01:58:31;;;;;;;;;;;9.10;99.90;;;;;;5037653;28;19925;-75
2023/12/11 02:00:56;;;;;;;;;;;9.10;99.90;;;;;;5041633;28;20347;-76
2023/12/11 02:03:22;;;;;;;;;;;9.20;99.90;;;;;;5047078;28;19931;-75
2023/12/11 02:05:49;;;;;;;;;;;9.10;99.90;;;;;;5047666;28;19921;-75
2023/12/11 02:08:15;;;;;;;;;;;9.20;99.90;;;;;;5047639;28;19975;-77
2023/12/11 02:10:41;;;;;;;;;;;9.20;99.90;;;;;;5033833;28;19925;-75
2023/12/11 02:13:06;;;;;;;;;;;9.20;99.90;;;;;;5044931;28;20483;-74
2023/12/11 02:15:35;;;;;;;;;;;9.20;99.90;;;;;;5047038;28;20343;-75
2023/12/11 02:18:01;;;;;;;;;;;9.20;99.90;;;;;;5043991;28;19928;-74
2023/12/11 02:20:27;;;;;;;;;;;9.20;99.90;;;;;;5047268;28;20564;-74
2023/12/11 02:22:53;;;;;;;;;;;9.20;99.90;;;;;;5046235;28;19924;-75
2023/12/11 02:25:19;;;;;;;;;;;9.20;99.90;;;;;;5044539;28;19976;-74
2023/12/11 02:27:44;;;;;;;;;;;9.20;99.90;;;;;;5049899;28;20423;-75
2023/12/11 02:30:10;;;;;;;;;;;9.20;99.90;;;;;;5050855;28;19982;-75
2023/12/11 02:32:36;;;;;;;;;;;9.20;99.90;;;;;;5052294;28;20380;-74
2023/12/11 02:35:01;;;;;;;;;;;9.20;99.90;;;;;;5051831;28;20393;-74
2023/12/11 02:37:27;;;;;;;;;;;9.20;99.90;;;;;;5052730;28;19932;-75
2023/12/11 02:39:52;;;;;;;;;;;9.20;99.90;;;;;;5050225;28;20408;-74
2023/12/11 02:42:18;;;;;;;;;;;9.20;99.90;;;;;;5050025;28;19925;-74
2023/12/11 02:44:43;;;;;;;;;;;9.20;99.90;;;;;;5046715;28;19928;-74
2023/12/11 02:47:09;;;;;;;;;;;9.20;99.90;;;;;;5049846;28;19924;-74
2023/12/11 02:49:34;;;;;;;;;;;9.20;99.90;;;;;;5052404;28;19924;-75
2023/12/11 02:52:00;;;;;;;;;;;9.10;99.90;;;;;;5049449;28;20475;-73
2023/12/11 02:54:26;;;;;;;;;;;9.20;99.90;;;;;;5050536;28;19935;-74
2023/12/11 02:56:51;;;;;;;;;;;9.20;99.90;;;;;;5047105;28;20051;-74
2023/12/11 02:59:17;;;;;;;;;;;9.20;99.90;;;;;;5048761;28;19928;-73
2023/12/11 03:01:42;;;;;;;;;;;9.20;99.90;;;;;;5048441;28;20560;-75
2023/12/11 03:04:08;;;;;;;;;;;9.20;99.90;;;;;;5050007;28;20370;-74
2023/12/11 03:06:33;;;;;;;;;;;9.20;99.90;;;;;;5043918;28;19925;-74
2023/12/11 03:09:02;;;;;;;;;;;9.20;99.90;;;;;;5047189;28;20478;-74
2023/12/11 03:11:28;;;;;;;;;;;9.20;99.90;;;;;;5043635;28;19996;-74
2023/12/11 03:13:53;;;;;;;;;;;9.20;99.90;;;;;;5050081;28;19979;-75
2023/12/11 03:16:19;;;;;;;;;;;9.20;99.90;;;;;;5050916;28;20500;-75
2023/12/11 03:18:44;;;;;;;;;;;9.20;99.90;;;;;;5052157;28;19932;-75
2023/12/11 03:21:10;;;;;;;;;;;9.20;99.90;;;;;;5049991;28;19928;-74
2023/12/11 03:23:38;;;;;;;;;;;9.30;99.90;;;;;;5050539;28;20384;-75
2023/12/11 03:26:04;;;;;;;;;;;9.30;99.90;;;;;;5049295;28;19931;-74
2023/12/11 03:28:29;;;;;;;;;;;9.30;99.90;;;;;;5049633;28;20116;-75
2023/12/11 03:30:55;;;;;;;;;;;9.30;99.90;;;;;;5049979;28;19982;-75
2023/12/11 03:33:20;;;;;;;;;;;9.30;99.90;;;;;;5036742;28;19928;-74
2023/12/11 03:35:46;;;;;;;;;;;9.30;99.90;;;;;;5048816;28;19928;-74
2023/12/11 03:38:11;;;;;;;;;;;9.30;99.90;;;;;;5048768;28;19925;-75
2023/12/11 03:40:37;;;;;;;;;;;9.30;99.90;;;;;;5049202;28;19924;-75
2023/12/11 03:43:02;;;;;;;;;;;9.30;99.90;;;;;;5049403;28;19925;-75
2023/12/11 03:45:28;;;;;;;;;;;9.20;99.90;;;;;;5050784;28;19932;-76
2023/12/11 03:47:54;;;;;;;;;;;9.30;99.90;;;;;;5044792;28;19925;-75
2023/12/11 03:50:19;;;;;;;;;;;9.30;99.90;;;;;;5036078;28;19932;-75
2023/12/11 03:52:45;;;;;;;;;;;9.30;99.90;;;;;;5048513;28;19960;-76
2023/12/11 03:55:11;;;;;;;;;;;9.30;99.90;;;;;;5048652;28;20011;-75
2023/12/11 03:57:36;;;;;;;;;;;9.30;99.90;;;;;;5047285;28;19933;-75
2023/12/11 04:00:02;;;;;;;;;;;9.30;99.90;;;;;;5034929;28;20315;-75
2023/12/11 04:02:27;;;;;;;;;;;9.30;99.90;;;;;;5046215;28;19936;-75
2023/12/11 04:04:53;;;;;;;;;;;9.30;99.90;;;;;;5049524;28;19935;-76
2023/12/11 04:07:19;;;;;;;;;;;9.30;99.90;;;;;;5045476;28;19974;-74
2023/12/11 04:09:44;;;;;;;;;;;9.40;99.90;;;;;;5044750;28;20016;-75
2023/12/11 04:12:10;;;;;;;;;;;9.30;99.90;;;;;;5042364;28;19924;-75
2023/12/11 04:14:35;;;;;;;;;;;9.40;99.90;;;;;;5049193;28;20373;-75
2023/12/11 04:17:01;;;;;;;;;;;9.40;99.90;;;;;;5048360;28;19924;-75
2023/12/11 04:19:27;;;;;;;;;;;9.40;99.90;;;;;;5050748;28;20015;-76
2023/12/11 04:21:52;;;;;;;;;;;9.40;99.90;;;;;;5050475;28;20351;-76
2023/12/11 04:24:18;;;;;;;;;;;9.40;99.90;;;;;;5048183;28;21187;-75
2023/12/11 04:26:43;;;;;;;;;;;9.40;99.90;;;;;;5048478;28;19967;-75
2023/12/11 04:29:09;;;;;;;;;;;9.40;99.90;;;;;;5043808;28;20051;-75
2023/12/11 04:31:34;;;;;;;;;;;9.40;99.90;;;;;;5046724;28;19924;-76
2023/12/11 04:34:00;;;;;;;;;;;9.40;99.90;;;;;;5047870;28;19928;-76
2023/12/11 04:36:26;;;;;;;;;;;9.40;99.90;;;;;;5045388;28;19982;-75
2023/12/11 04:38:52;;;;;;;;;;;9.40;99.90;;;;;;5048697;28;20269;-75
2023/12/11 04:41:17;;;;;;;;;;;9.40;99.90;;;;;;5046872;28;19972;-74
2023/12/11 04:43:43;;;;;;;;;;;9.40;99.90;;;;;;5047732;28;20012;-75
2023/12/11 04:46:08;;;;;;;;;;;9.40;99.90;;;;;;5045435;28;19929;-75
2023/12/11 04:48:34;;;;;;;;;;;9.40;99.90;;;;;;5049686;28;20395;-75
2023/12/11 04:51:00;;;;;;;;;;;9.40;99.90;;;;;;5033769;28;19926;-75
2023/12/11 04:53:25;;;;;;;;;;;9.40;99.90;;;;;;5044890;28;19936;-75
2023/12/11 04:55:51;;;;;;;;;;;9.40;99.90;;;;;;5048669;28;19928;-75
2023/12/11 04:58:16;;;;;;;;;;;9.40;99.90;;;;;;5047673;28;19933;-75
2023/12/11 05:00:42;;;;;;;;;;;9.40;99.90;;;;;;5045647;28;19932;-75
2023/12/11 05:03:07;;;;;;;;;;;9.40;99.90;;;;;;5042126;28;20368;-75
2023/12/11 05:05:34;;;;;;;;;;;9.40;99.90;;;;;;5034091;28;19925;-75
2023/12/11 05:08:00;;;;;;;;;;;9.40;99.90;;;;;;5046756;28;19968;-74
2023/12/11 05:10:25;;;;;;;;;;;9.40;99.90;;;;;;5044840;28;20454;-75
2023/12/11 05:12:51;;;;;;;;;;;9.40;99.90;;;;;;5048446;28;19932;-75
2023/12/11 05:15:16;;;;;;;;;;;9.40;99.90;;;;;;5047541;28;19982;-75
2023/12/11 05:17:42;;;;;;;;;;;9.40;99.90;;;;;;5048873;28;19947;-75
2023/12/11 05:20:08;;;;;;;;;;;9.40;99.90;;;;;;5045203;28;19971;-75
2023/12/11 05:22:33;;;;;;;;;;;9.40;99.90;;;;;;5048011;28;19924;-75
2023/12/11 05:24:59;;;;;;;;;;;9.40;99.90;;;;;;5045179;28;20418;-75
2023/12/11 05:27:24;;;;;;;;;;;9.40;99.90;;;;;;5047317;28;19929;-75
2023/12/11 05:29:50;;;;;;;;;;;9.40;99.90;;;;;;5048690;28;19951;-76
2023/12/11 05:32:15;;;;;;;;;;;9.40;99.90;;;;;;5047058;28;19925;-76
2023/12/11 05:34:41;;;;;;;;;;;9.30;99.90;;;;;;5047414;28;19925;-76
2023/12/11 05:37:07;;;;;;;;;;;9.40;99.90;;;;;;5044245;28;19932;-75
2023/12/11 05:39:32;;;;;;;;;;;9.30;99.90;;;;;;5048992;28;19929;-76
2023/12/11 05:41:58;;;;;;;;;;;9.40;99.90;;;;;;5046376;28;19976;-75
2023/12/11 05:44:24;;;;;;;;;;;9.30;99.90;;;;;;5048596;28;20806;-75
2023/12/11 05:46:49;;;;;;;;;;;9.30;99.90;;;;;;5046840;28;19932;-76
2023/12/11 05:49:15;;;;;;;;;;;9.30;99.90;;;;;;5047440;28;19928;-75
2023/12/11 05:51:40;;;;;;;;;;;9.30;99.90;;;;;;5047682;28;19925;-76
2023/12/11 05:54:06;;;;;;;;;;;9.40;99.90;;;;;;5047047;28;19967;-75
2023/12/11 05:56:32;;;;;;;;;;;9.40;99.90;;;;;;5045196;28;19924;-75
2023/12/11 05:58:58;;;;;;;;;;;9.40;99.90;;;;;;5047256;28;19921;-75
2023/12/11 06:01:25;;;;;;;;;;;9.40;99.90;;;;;;5033602;28;19936;-75
2023/12/11 06:03:51;;;;;;;;;;;9.40;99.90;;;;;;5039259;28;19960;-75
2023/12/11 06:06:17;;;;;;;;;;;9.30;99.90;;;;;;5047618;28;20406;-74
2023/12/11 06:08:43;;;;;;;;;;;9.40;99.90;;;;;;5046366;28;20405;-75
2023/12/11 06:11:08;;;;;;;;;;;9.40;99.90;;;;;;5043339;28;20373;-76
2023/12/11 06:13:34;;;;;;;;;;;9.30;99.90;;;;;;5047687;28;20023;-76
2023/12/11 06:15:59;;;;;;;;;;;9.30;99.90;;;;;;5045277;28;19932;-75
2023/12/11 06:18:25;;;;;;;;;;;9.30;99.90;;;;;;5046673;28;19939;-75
2023/12/11 06:20:51;;;;;;;;;;;9.30;99.90;;;;;;5046543;28;19925;-75
2023/12/11 06:23:16;;;;;;;;;;;9.30;99.90;;;;;;5047395;28;19964;-75
2023/12/11 06:25:42;;;;;;;;;;;9.30;99.90;;;;;;5046611;28;19925;-76
2023/12/11 06:28:07;;;;;;;;;;;9.30;99.90;;;;;;5045147;28;20418;-76
2023/12/11 06:30:33;;;;;;;;;;;9.30;99.90;;;;;;5044984;28;19931;-77
2023/12/11 06:32:58;;;;;;;;;;;9.30;99.90;;;;;;5049041;28;20288;-76
2023/12/11 06:35:24;;;;;;;;;;;9.20;99.90;;;;;;5047176;28;20066;-76
2023/12/11 06:37:50;;;;;;;;;;;9.20;99.90;;;;;;5048044;28;19932;-76
2023/12/11 06:40:16;;;;;;;;;;;9.20;99.90;;;;;;5043517;28;19929;-76
2023/12/11 06:42:45;;;;;;;;;;;9.20;99.90;;;;;;5047666;28;20273;-76
2023/12/11 06:45:12;;;;;;;;;;;9.20;99.90;;;;;;5045435;28;20385;-76
2023/12/11 06:47:38;;;;;;;;;;;9.20;99.90;;;;;;5048334;28;20408;-77
2023/12/11 06:50:03;;;;;;;;;;;9.20;99.90;;;;;;5045472;28;19932;-76
2023/12/11 06:52:29;;;;;;;;;;;9.20;99.90;;;;;;5046000;28;20070;-76
2023/12/11 06:54:55;;;;;;;;;;;9.20;99.90;;;;;;5043657;28;19990;-76
2023/12/11 06:57:21;;;;;;;;;;;9.20;99.90;;;;;;5046850;28;19925;-76
2023/12/11 06:59:46;;;;;;;;;;;9.20;99.90;;;;;;5045608;28;20012;-75
2023/12/11 07:02:12;;;;;;;;;;;9.20;99.90;;;;;;5042334;28;20003;-76
2023/12/11 07:04:40;;;;;;;;;;;9.20;99.90;;;;;;5044219;28;20292;-76
2023/12/11 07:07:06;;;;;;;;;;;9.20;99.90;;;;;;5039669;28;20016;-76
2023/12/11 07:09:31;;;;;;;;;;;9.20;99.90;;;;;;5045386;28;20358;-75
2023/12/11 07:11:57;;;;;;;;;;;9.20;99.90;;;;;;5044270;28;19960;-75
2023/12/11 07:14:24;;;;;;;;;;;9.20;99.90;;;;;;5048097;28;20435;-75
2023/12/11 07:16:50;;;;;;;;;;;9.20;99.90;;;;;;5048805;28;20380;-75
2023/12/11 07:19:16;;;;;;;;;;;9.20;99.90;;;;;;5048613;28;19979;-75
2023/12/11 07:21:42;;;;;;;;;;;9.20;99.90;;;;;;5048853;28;19973;-75
2023/12/11 07:24:08;;;;;;;;;;;9.20;99.90;;;;;;5051554;28;20637;-75
2023/12/11 07:26:34;;;;;;;;;;;9.20;99.90;;;;;;5046892;28;19939;-74
2023/12/11 07:29:00;;;;;;;;;;;9.20;99.90;;;;;;5046090;28;19925;-74
2023/12/11 07:31:25;;;;;;;;;;;9.20;99.90;;;;;;5048868;28;20019;-74
2023/12/11 07:33:51;;;;;;;;;;;9.20;99.90;;;;;;5048298;28;19964;-75
2023/12/11 07:36:17;;;;;;;;;;;9.20;99.90;;;;;;5047953;28;19929;-75
2023/12/11 07:38:42;;;;;;;;;;;9.20;99.90;;;;;;5051895;28;20360;-75
2023/12/11 07:41:08;;;;;;;;;;;9.20;99.90;;;;;;5045611;28;20055;-74
2023/12/11 07:43:33;;;;;;;;;;;9.20;99.90;;;;;;5048223;28;19960;-75
2023/12/11 07:45:59;;;;;;;;;;;9.20;99.90;;;;;;5048959;28;19925;-75
2023/12/11 07:48:25;;;;;;;;;;;9.20;99.90;;;;;;5048891;28;19928;-74
2023/12/11 07:50:51;;;;;;;;;;;9.20;99.90;;;;;;5050190;28;19936;-74
2023/12/11 07:53:17;;;;;;;;;;;9.20;99.90;;;;;;5050336;28;19925;-74
2023/12/11 07:55:42;;;;;;;;;;;9.20;99.90;;;;;;5048046;28;19924;-74
2023/12/11 07:58:08;;;;;;;;;;;9.20;99.90;;;;;;5047958;28;20026;-72
2023/12/11 08:00:33;;;;;;;;;;;9.20;99.90;;;;;;5046856;28;20348;-74
2023/12/11 08:02:59;;;;;;;;;;;9.20;99.90;;;;;;5042427;28;19925;-74
2023/12/11 08:05:25;;;;;;;;;;;9.20;99.90;;;;;;5044562;28;19924;-74
2023/12/11 08:07:50;;;;;;;;;;;9.20;99.90;;;;;;5040977;28;20369;-75
2023/12/11 08:10:16;;;;;;;;;;;9.20;99.90;;;;;;5048550;28;19936;-74
2023/12/11 08:12:42;;;;;;;;;;;9.20;99.90;;;;;;5048037;28;19928;-73
2023/12/11 08:15:07;;;;;;;;;;;9.20;99.90;;;;;;5048322;28;19924;-74
2023/12/11 08:17:33;;;;;;;;;;;9.20;99.90;;;;;;5049401;28;20023;-74
2023/12/11 08:19:59;;;;;;;;;;;9.20;99.90;;;;;;5049660;28;19925;-75
2023/12/11 08:22:24;;;;;;;;;;;9.20;99.90;;;;;;5050055;28;20012;-75
2023/12/11 08:24:53;;;;;;;;;;;9.30;99.90;;;;;;5047402;28;19925;-74
2023/12/11 08:27:19;;;;;;;;;;;9.20;99.90;;;;;;5046976;28;20331;-74
2023/12/11 08:29:46;;;;;;;;;;;9.30;99.90;;;;;;5049245;28;19987;-74
2023/12/11 08:32:12;;;;;;;;;;;9.30;99.90;;;;;;5028964;28;19925;-74
2023/12/11 08:34:37;;;;;;;;;;;9.30;99.90;;;;;;5030313;28;19932;-74
2023/12/11 08:37:03;;;;;;;;;;;9.30;99.90;;;;;;5031589;28;20317;-74
2023/12/11 08:39:28;;;;;;;;;;;9.30;99.90;;;;;;5037590;28;20552;-74
2023/12/11 08:41:54;;;;;;;;;;;9.30;99.90;;;;;;5047878;28;19925;-74
2023/12/11 08:44:19;;;;;;;;;;;9.30;99.90;;;;;;5035273;28;20008;-73
2023/12/11 08:46:45;;;;;;;;;;;9.30;99.90;;;;;;5046929;28;19932;-74
2023/12/11 08:49:11;;;;;;;;;;;9.30;99.90;;;;;;5049571;28;19924;-75
2023/12/11 08:51:36;;;;;;;;;;;9.30;99.90;;;;;;5047710;28;20017;-74
2023/12/11 08:54:02;;;;;;;;;;;9.30;99.90;;;;;;5045623;28;20015;-75
2023/12/11 08:56:28;;;;;;;;;;;9.30;99.90;;;;;;5047943;28;20296;-74
2023/12/11 08:58:56;;;;;;;;;;;9.30;99.90;;;;;;5045130;28;19924;-74
2023/12/11 09:01:22;;;;;;;;;;;9.30;99.90;;;;;;5044746;28;19932;-74
2023/12/11 09:03:48;;;;;;;;;;;9.30;99.90;;;;;;5040347;28;19925;-74
2023/12/11 09:06:14;;;;;;;;;;;9.30;99.90;;;;;;5039546;28;19928;-75
2023/12/11 09:08:40;;;;;;;;;;;9.40;99.90;;;;;;5039893;28;19979;-75
2023/12/11 09:11:06;;;;;;;;;;;9.40;99.90;;;;;;5039123;28;20618;-75
2023/12/11 09:13:31;;;;;;;;;;;9.40;99.90;;;;;;5046128;28;20011;-75
2023/12/11 09:15:57;;;;;;;;;;;9.40;99.90;;;;;;5046395;28;19925;-75
2023/12/11 09:18:23;;;;;;;;;;;9.40;99.90;;;;;;5048795;28;19924;-75
2023/12/11 09:20:48;;;;;;;;;;;9.40;99.90;;;;;;5047746;28;20365;-75
2023/12/11 09:23:16;;;;;;;;;;;9.40;99.90;;;;;;5042367;28;21498;-75
2023/12/11 09:25:41;;;;;;;;;;;9.40;99.90;;;;;;5028217;28;19925;-75
2023/12/11 09:28:07;;;;;;;;;;;9.40;99.90;;;;;;5044714;28;20438;-75
2023/12/11 09:30:33;;;;;;;;;;;9.50;99.90;;;;;;5047897;28;19933;-75
2023/12/11 09:32:58;;;;;;;;;;;9.40;99.90;;;;;;5048092;28;19925;-75
2023/12/11 09:35:24;;;;;;;;;;;9.50;99.90;;;;;;5045030;28;19928;-73
2023/12/11 09:37:49;;;;;;;;;;;9.50;99.90;;;;;;5046597;28;19959;-74
2023/12/11 09:40:15;;;;;;;;;;;9.50;99.90;;;;;;5046805;28;19929;-74
2023/12/11 09:42:42;;;;;;;;;;;9.50;99.90;;;;;;5046777;28;20027;-74
2023/12/11 09:45:08;;;;;;;;;;;9.50;99.90;;;;;;5045778;28;19925;-74
2023/12/11 09:47:36;;;;;;;;;;;9.50;99.90;;;;;;5049541;28;20337;-75
2023/12/11 09:50:01;;;;;;;;;;;9.50;99.90;;;;;;5049498;28;19967;-73
2023/12/11 09:52:27;;;;;;;;;;;9.50;99.90;;;;;;5047989;28;19975;-73
2023/12/11 09:54:53;;;;;;;;;;;9.50;99.90;;;;;;5045927;28;19925;-74
2023/12/11 09:57:19;;;;;;;;;;;9.60;99.90;;;;;;5047100;28;19932;-73
2023/12/11 09:59:46;;;;;;;;;;;9.60;99.90;;;;;;5049496;28;20343;-73
2023/12/11 10:02:15;;;;;;;;;;;9.60;99.90;;;;;;5046803;28;19928;-74
2023/12/11 10:05:03;;;;;;;;;;;9.60;99.90;;;;;;5044964;28;19932;-74
2023/12/11 10:07:32;;;;;;;;;;;9.70;99.90;;;;;;5031383;28;19939;-74
2023/12/11 10:10:33;;;;;;;;;;;9.70;99.90;;;;;;5038901;28;20802;-74
2023/12/11 10:13:00;;;;;;;;;;;9.70;99.90;;;;;;4970034;28;19996;-75
2023/12/11 10:15:27;;;;;;;;;;;9.70;99.90;;;;;;5031206;28;19933;-76
2023/12/11 10:18:00;;;;;;;;;;;9.70;99.90;;;;;;5048452;28;19925;-75
2023/12/11 10:20:26;;;;;;;;;;;9.70;99.90;;;;;;5047500;28;19933;-78
2023/12/11 10:22:51;;;;;;;;;;;9.80;99.90;;;;;;5046239;28;19951;-76
2023/12/11 10:25:27;;;;;;;;;;;9.80;99.90;;;;;;5047325;28;19924;-77
2023/12/11 10:28:06;;;;;;;;;;;9.80;99.90;;;;;;5047389;28;19925;-77
2023/12/11 10:30:32;;;;;;;;;;;9.80;99.90;;;;;;5045623;28;20280;-76
2023/12/11 10:33:02;;;;;;;;;;;9.70;99.90;;;;;;5046789;28;19932;-76
2023/12/11 10:35:28;;;;;;;;;;;9.60;99.90;;;;;;5047791;28;20007;-76
2023/12/11 10:38:01;;;;;;;;;;;9.60;99.90;;;;;;5048535;28;20012;-76
2023/12/11 10:40:53;;;;;;;;;;;9.60;99.90;;;;;;5045425;28;19933;-76
2023/12/11 10:43:18;;;;;;;;;;;9.60;99.90;;;;;;5040401;28;19980;-75
2023/12/11 10:45:44;;;;;;;;;;;9.80;99.90;;;;;;5047731;28;19975;-76
2023/12/11 10:48:10;;;;;;;;;;;9.60;99.90;;;;;;5047918;28;19929;-75
2023/12/11 10:50:36;;;;;;;;;;;9.60;99.90;;;;;;5050643;28;20319;-76
2023/12/11 10:53:02;;;;;;;;;;;9.60;99.90;;;;;;5051626;28;20015;-75
2023/12/11 10:55:29;;;;;;;;;;;9.60;99.90;;;;;;5049645;28;19932;-76
2023/12/11 10:57:55;;;;;;;;;;;9.60;99.90;;;;;;5050095;28;20008;-76
2023/12/11 11:00:21;;;;;;;;;;;9.60;99.90;;;;;;5048611;28;20291;-76
2023/12/11 11:02:53;;;;;;;;;;;9.70;99.90;;;;;;5051262;28;19925;-75
2023/12/11 11:05:20;;;;;;;;;;;9.60;99.90;;;;;;5044108;28;19944;-75
2023/12/11 11:08:06;;;;;;;;;;;9.70;99.90;;;;;;5036014;28;19979;-76
2023/12/11 11:11:05;;;;;;;;;;;9.60;99.90;;;;;;5023720;28;19931;-76
2023/12/11 11:13:36;;;;;;;;;;;9.70;99.90;;;;;;5026920;28;20289;-77
2023/12/11 11:16:03;;;;;;;;;;;9.70;99.90;;;;;;5048782;28;20375;-76
2023/12/11 11:18:31;;;;;;;;;;;9.70;99.90;;;;;;5048361;28;20312;-75
2023/12/11 11:21:10;;;;;;;;;;;9.70;99.90;;;;;;5049842;28;19935;-75
2023/12/11 11:23:41;;;;;;;;;;;9.70;99.90;;;;;;5051108;28;19970;-76
2023/12/11 11:26:27;;;;;;;;;;;9.70;99.90;;;;;;5049078;28;19961;-74
2023/12/11 11:28:52;;;;;;;;;;;9.90;99.90;;;;;;5048949;28;20016;-75
2023/12/11 11:31:18;;;;;;;;;;;9.70;99.90;;;;;;5050082;28;20479;-75
2023/12/11 11:33:46;;;;;;;;;;;9.60;99.90;;;;;;5051684;28;20011;-75
2023/12/11 11:36:12;;;;;;;;;;;9.60;99.90;;;;;;5051730;28;19928;-75
2023/12/11 11:38:50;;;;;;;;;;;9.60;99.90;;;;;;5051404;28;19925;-75
2023/12/11 11:41:20;;;;;;;;;;;9.60;99.90;;;;;;5049447;28;19928;-77
2023/12/11 11:43:54;;;;;;;;;;;9.60;99.90;;;;;;5048274;28;19981;-76
2023/12/11 11:46:19;;;;;;;;;;;9.60;99.90;;;;;;5049292;28;19921;-76
2023/12/11 11:48:45;;;;;;;;;;;9.60;99.90;;;;;;5047946;28;20286;-75
2023/12/11 11:51:10;;;;;;;;;;;9.60;99.90;;;;;;5051853;28;19942;-75
2023/12/11 11:53:37;;;;;;;;;;;9.60;99.90;;;;;;5049304;28;20416;-76
2023/12/11 11:56:03;;;;;;;;;;;9.50;99.90;;;;;;5048768;28;19925;-76
2023/12/11 11:58:28;;;;;;;;;;;9.50;99.90;;;;;;5051120;28;19925;-76
2023/12/11 12:01:02;;;;;;;;;;;9.50;99.90;;;;;;5048645;28;20626;-76
2023/12/11 12:03:38;;;;;;;;;;;9.50;99.90;;;;;;5045502;28;20037;-75
2023/12/11 12:06:03;;;;;;;;;;;9.70;99.90;;;;;;5035158;28;20361;-74
2023/12/11 12:08:29;;;;;;;;;;;9.50;99.90;;;;;;5039945;28;19933;-76
2023/12/11 12:10:56;;;;;;;;;;;9.50;99.90;;;;;;5042854;28;19921;-76
2023/12/11 12:13:22;;;;;;;;;;;9.50;99.90;;;;;;5038769;28;20007;-76
2023/12/11 12:15:51;;;;;;;;;;;9.50;99.90;;;;;;5048761;28;19956;-76
2023/12/11 12:18:17;;;;;;;;;;;9.50;99.90;;;;;;5047815;28;19925;-77
2023/12/11 12:20:42;;;;;;;;;;;9.50;99.90;;;;;;5046321;28;20410;-76
2023/12/11 12:23:08;;;;;;;;;;;9.60;99.90;;;;;;5048104;28;19929;-75
2023/12/11 12:25:34;;;;;;;;;;;9.50;99.90;;;;;;5040338;28;19931;-73
2023/12/11 12:28:08;;;;;;;;;;;9.50;99.90;;;;;;5046880;28;20292;-74
2023/12/11 12:30:34;;;;;;;;;;;9.50;99.90;;;;;;5049005;28;19951;-74
2023/12/11 12:33:00;;;;;;;;;;;9.50;99.90;;;;;;5045524;28;19936;-74
2023/12/11 12:35:26;;;;;;;;;;;9.50;99.90;;;;;;5047249;28;20379;-75
2023/12/11 12:37:52;;;;;;;;;;;9.60;99.90;;;;;;5047978;28;19940;-75
2023/12/11 12:40:17;;;;;;;;;;;9.50;99.90;;;;;;5048371;28;19925;-75
2023/12/11 12:42:43;;;;;;;;;;;9.60;99.90;;;;;;5051183;28;19925;-74
2023/12/11 12:45:09;;;;;;;;;;;9.50;99.90;;;;;;5045276;28;19935;-74
2023/12/11 12:47:47;;;;;;;;;;;9.50;99.90;;;;;;5050099;28;20019;-74
2023/12/11 12:50:22;;;;;;;;;;;9.50;99.90;;;;;;5047390;28;20331;-74
2023/12/11 12:52:48;;;;;;;;;;;9.40;99.90;;;;;;5049885;28;19931;-74
2023/12/11 12:55:13;;;;;;;;;;;9.30;99.90;;;;;;5048112;28;19929;-75
2023/12/11 12:57:39;;;;;;;;;;;9.30;99.90;;;;;;5048395;28;20466;-74
2023/12/11 13:00:05;;;;;;;;;;;9.20;99.90;;;;;;5048153;28;19925;-75
2023/12/11 13:02:31;;;;;;;;;;;9.20;99.90;;;;;;5048893;28;19924;-74
2023/12/11 13:04:57;;;;;;;;;;;9.10;99.90;;;;;;5030889;28;19929;-74
2023/12/11 13:07:23;;;;;;;;;;;9.10;99.90;;;;;;5045856;28;19935;-74
2023/12/11 13:09:49;;;;;;;;;;;9.10;99.90;;;;;;5043148;28;19925;-75
2023/12/11 13:12:18;;;;;;;;;;;9.00;99.90;;;;;;5030056;28;20043;-74
2023/12/11 13:14:44;;;;;;;;;;;9.00;99.90;;;;;;5043242;28;19928;-74
2023/12/11 13:17:09;;;;;;;;;;;9.10;99.90;;;;;;5045654;28;20292;-75
2023/12/11 13:19:35;;;;;;;;;;;8.90;99.90;;;;;;5045677;28;19985;-74
2023/12/11 13:22:01;;;;;;;;;;;8.80;99.90;;;;;;5048383;28;20376;-74
2023/12/11 13:24:26;;;;;;;;;;;8.80;99.90;;;;;;5048440;28;19929;-74
2023/12/11 13:26:52;;;;;;;;;;;8.70;99.90;;;;;;5046024;28;19951;-74
2023/12/11 13:29:18;;;;;;;;;;;8.90;99.90;;;;;;5048425;28;19924;-75
2023/12/11 13:31:43;;;;;;;;;;;8.80;99.90;;;;;;5047561;28;20013;-75
2023/12/11 13:34:09;;;;;;;;;;;8.70;99.90;;;;;;5046699;28;19936;-74
2023/12/11 13:36:34;;;;;;;;;;;8.70;99.90;;;;;;5048496;28;19932;-75
2023/12/11 13:39:00;;;;;;;;;;;9.20;99.90;;;;;;5047384;28;19970;-74
2023/12/11 13:41:26;;;;;;;;;;;8.70;99.90;;;;;;5037514;28;20036;-73
2023/12/11 13:43:51;;;;;;;;;;;8.70;99.90;;;;;;5028191;28;19925;-74
2023/12/11 13:46:17;;;;;;;;;;;8.90;99.90;;;;;;5025386;28;20419;-75
2023/12/11 13:48:43;;;;;;;;;;;8.60;99.90;;;;;;5022953;28;20436;-74
2023/12/11 13:51:09;;;;;;;;;;;8.60;99.90;;;;;;5028243;28;19936;-74
2023/12/11 13:53:35;;;;;;;;;;;8.60;99.90;;;;;;5039926;28;20361;-76
2023/12/11 13:56:01;;;;;;;;;;;8.40;99.90;;;;;;5047944;28;19924;-74
2023/12/11 13:58:27;;;;;;;;;;;8.60;99.90;;;;;;5047579;28;20612;-75
2023/12/11 14:00:53;;;;;;;;;;;8.60;99.90;;;;;;5045817;28;19932;-74
2023/12/11 14:03:20;;;;;;;;;;;8.60;99.90;;;;;;5040942;28;20381;-76
2023/12/11 14:05:45;;;;;;;;;;;8.60;99.90;;;;;;5028574;28;19925;-74
2023/12/11 14:08:13;;;;;;;;;;;8.60;99.90;;;;;;5031080;28;20343;-75
2023/12/11 14:10:38;;;;;;;;;;;8.60;99.90;;;;;;5025731;28;19979;-74
2023/12/11 14:13:04;;;;;;;;;;;8.70;99.90;;;;;;5040158;28;20346;-75
2023/12/11 14:15:30;;;;;;;;;;;8.60;99.90;;;;;;5046411;28;19925;-74
2023/12/11 14:17:56;;;;;;;;;;;8.60;99.90;;;;;;5048216;28;20388;-75
2023/12/11 14:20:21;;;;;;;;;;;8.70;99.90;;;;;;5045886;28;20268;-74
2023/12/11 14:22:47;;;;;;;;;;;8.70;99.90;;;;;;5050432;28;19925;-75
2023/12/11 14:25:14;;;;;;;;;;;8.70;99.90;;;;;;5053662;28;19929;-75
2023/12/11 14:27:40;;;;;;;;;;;8.80;99.90;;;;;;5054657;28;19921;-74